Lake Clark National Park, AK

1:12 AM AKST on February 08, 2016 (GMT -0900)
Sparrevohn | | Change Station
CLOSE
Current Station
Airport
Location: Sparrevohn,
Elevation: 1588 ft
Nearby Weather Stations

Elev 1588 ft 61.10 °N, 155.57 °W | Updated 17 minutes ago

Scattered Clouds
Scattered Clouds
22 °F
Feels Like 22 °F
N
1
Wind Variable Wind from East

Today
High -- | Low -- °F
--% Chance of Precip.
Yesterday
High -- | Low -- °F
Precip. -- in
Pressure 29.57 in
Visibility 10.0 miles
Clouds Few 9500 ft
Scattered Clouds 14000 ft
Dew Point 12 °F
Humidity 65%
Rainfall 0.00 in
Snow Depth Not available.
9:16 AM 5:48 PM
Waning Crescent, 0% visible
METAR PASV 080955Z AUTO 08001KT 10SM FEW095 SCT140 M05/M11 A2949 RMK AO2 SLP014 T10541110 400111120
Pressure 29.57 in
Visibility 10.0 miles
Clouds Few 9500 ft
Scattered Clouds 14000 ft
Dew Point 12 °F
Humidity 65%
Rainfall 0.00 in
Snow Depth Not available.
9:16 AM 5:48 PM
Waning Crescent, 0% visible
METAR PASV 080955Z AUTO 08001KT 10SM FEW095 SCT140 M05/M11 A2949 RMK AO2 SLP014 T10541110 400111120

10-Day Weather Forecast

Almanac

Astronomy

Feb. 08, 2016 Rise Set
Actual Time
Civil Twilight
Nautical Twilight
Astronomical Twilight
Moon
Length of Visible Light
Length of Day
Tomorrow will be .
, % of the Moon is Illuminated

Today's Extremes

State Highs State Lows

Community

WunderPhotos

Upload Photos

1,891,412 photos uploaded!

WunderBlog® & News

Nearby

Air Quality

  Air Quality AQ Index Pollutant
Not available.

Snow Depth

Station Depth Elevation

Earthquake Activity

City Distance Mag. Time & Date
Minimum magnitude displayed is 2.5.

Coastal Water Temperatures

Place Temperature

Stations

Nearby Weather Stations

Station Location Temp. Windchill Dew Point Humidity Wind Precip. Elev Updated Type
                   

Watches & Warnings

There are currently no watches in effect.